Terminal Aerodrome Forecast
Issued by NWS Upton, NY

Home | Current Version | Previous Version | Text Only | Print | Product List | Glossary On
Versions: 1 2 3 4 5 6 7 8 9 10 11 12 13 14 15 16 17 18 19 20 21 22 23 24 25 26 27 28 29 30 31 32 33
902
FTUS41 KOKX 220835 AAA
TAFJFK
TAF AMD
KJFK 220835Z 2209/2312 VRB03KT P6SM SCT250
     FM221500 17007KT P6SM BKN250
     FM221900 17012KT P6SM BKN250
     FM222200 17008KT P6SM BKN250
     FM230300 15005KT P6SM SCT015 BKN250=

USA.gov is the U.S. government's official web portal to all federal, state and local government web resources and services.